createdAt,value
2023-04-12T00:02:22.054Z,100460.41
2023-04-12T00:04:55.571Z,100447.38
2023-04-12T00:07:23.985Z,100438.88
2023-04-12T00:09:51.643Z,100435.41
2023-04-12T00:12:20.681Z,100427.78
2023-04-12T00:14:48.597Z,100426.78
2023-04-12T00:17:16.041Z,100409.44
2023-04-12T00:19:44.803Z,100402.56
2023-04-12T00:22:13.032Z,100402.56
2023-04-12T00:24:40.717Z,100386.94
2023-04-12T00:27:08.561Z,100383.50
2023-04-12T00:29:36.149Z,100379.13
2023-04-12T00:32:05.533Z,100372.19
2023-04-12T00:34:33.087Z,100365.53
2023-04-12T00:37:01.159Z,100372.47
2023-04-12T00:39:29.007Z,100345.72
2023-04-12T00:41:56.942Z,100332.63
2023-04-12T00:44:24.787Z,100331.16
2023-04-12T00:46:52.553Z,100323.97
2023-04-12T00:49:20.353Z,100318.00
2023-04-12T00:51:47.842Z,100305.97
2023-04-12T00:54:18.021Z,100275.78
2023-04-12T00:56:47.308Z,100268.84
2023-04-12T00:59:15.344Z,100285.22
2023-04-12T01:01:42.818Z,100279.09
2023-04-12T01:04:13.958Z,100286.94
2023-04-12T01:07:01.640Z,100280.81
2023-04-12T01:09:36.232Z,100267.91
2023-04-12T01:12:16.446Z,100250.66
2023-04-12T01:14:46.977Z,100246.50
2023-04-12T01:17:20.674Z,100241.22
2023-04-12T01:20:23.424Z,100229.03
2023-04-12T01:23:03.704Z,100222.91
2023-04-12T01:25:46.704Z,100207.25
2023-04-12T01:28:16.686Z,100192.63
2023-04-12T01:30:44.851Z,100195.09
2023-04-12T01:33:13.436Z,100184.81
2023-04-12T01:35:41.294Z,100195.09
2023-04-12T01:38:08.892Z,100183.09
2023-04-12T01:40:36.618Z,100171.56
2023-04-12T01:43:11.450Z,100163.91
2023-04-12T01:45:39.157Z,100155.28
2023-04-12T01:48:08.593Z,100153.22
2023-04-12T01:50:45.430Z,100137.03
2023-04-12T01:53:15.085Z,100130.34
2023-04-12T01:55:45.840Z,100120.69
2023-04-12T01:58:13.613Z,100121.47
2023-04-12T02:00:42.580Z,100117.06
2023-04-12T02:03:10.540Z,100099.84
2023-04-12T02:05:38.243Z,100092.69
2023-04-12T02:08:06.449Z,100090.34
2023-04-12T02:10:36.505Z,100089.38
2023-04-12T02:13:04.220Z,100074.78
2023-04-12T02:15:31.791Z,100078.03
2023-04-12T02:17:59.455Z,100066.91
2023-04-12T02:20:27.444Z,100064.59
2023-04-12T02:22:55.000Z,100042.56
2023-04-12T02:25:22.621Z,100039.94
2023-04-12T02:27:49.980Z,100041.84
2023-04-12T02:30:17.614Z,100042.72
2023-04-12T02:32:45.234Z,100025.34
2023-04-12T02:35:13.446Z,100015.97
2023-04-12T02:37:41.177Z,100007.47
2023-04-12T02:40:11.550Z,100001.13
2023-04-12T02:42:40.382Z,100001.59
2023-04-12T02:45:08.075Z,100002.72
2023-04-12T02:47:35.501Z,100000.59
2023-04-12T02:50:03.246Z,99985.22
2023-04-12T02:52:30.656Z,99975.91
2023-04-12T02:54:58.265Z,99969.03
2023-04-12T02:57:25.697Z,99949.31
2023-04-12T02:59:54.184Z,99955.69
2023-04-12T03:02:22.023Z,99947.31
2023-04-12T03:04:50.958Z,99930.91
2023-04-12T03:07:19.910Z,99922.25
2023-04-12T03:09:48.638Z,99942.16
2023-04-12T03:12:16.581Z,99931.63
2023-04-12T03:14:44.252Z,99940.06
2023-04-12T03:17:12.155Z,99922.31
2023-04-12T03:19:39.588Z,99924.97
2023-04-12T03:22:07.111Z,99933.31
2023-04-12T03:24:35.061Z,99919.69
2023-04-12T03:27:03.775Z,99912.75
2023-04-12T03:29:34.200Z,99918.78
2023-04-12T03:32:01.546Z,99909.25
2023-04-12T03:34:32.196Z,99910.84
2023-04-12T03:37:00.391Z,99908.78
2023-04-12T03:39:27.874Z,99895.72
2023-04-12T03:41:55.339Z,99890.31
2023-04-12T03:44:22.697Z,99887.09
2023-04-12T03:46:50.173Z,99869.00
2023-04-12T03:49:17.707Z,99870.53
2023-04-12T03:51:45.514Z,99873.22
2023-04-12T03:54:13.836Z,99863.75
2023-04-12T03:56:41.235Z,99853.06
2023-04-12T03:59:08.801Z,99847.22
2023-04-12T04:01:36.448Z,99844.56
2023-04-12T04:04:05.344Z,99845.66
2023-04-12T04:06:34.261Z,99815.34
2023-04-12T04:09:01.689Z,99812.69
2023-04-12T04:11:29.081Z,99827.19
2023-04-12T04:13:56.724Z,99827.13
2023-04-12T04:16:24.264Z,99821.72
2023-04-12T04:18:51.709Z,99823.41
2023-04-12T04:21:19.578Z,99811.69
2023-04-12T04:23:47.876Z,99796.94
2023-04-12T04:26:15.793Z,99807.31
2023-04-12T04:28:45.582Z,99814.13
2023-04-12T04:31:13.645Z,99786.78
2023-04-12T04:33:41.675Z,99772.81
2023-04-12T04:36:09.660Z,99804.69
2023-04-12T04:38:37.369Z,99789.44
2023-04-12T04:41:04.847Z,99785.69
2023-04-12T04:43:34.171Z,99784.94
2023-04-12T04:46:02.363Z,99785.56
2023-04-12T04:48:30.722Z,99795.00
2023-04-12T04:50:58.104Z,99798.25
2023-04-12T04:53:25.451Z,99788.00
2023-04-12T04:55:58.736Z,99778.53
2023-04-12T04:58:26.569Z,99787.25
2023-04-12T05:00:57.579Z,99798.44
2023-04-12T05:03:30.278Z,99799.22
2023-04-12T05:05:58.126Z,99777.50
2023-04-12T05:08:26.053Z,99790.44
2023-04-12T05:10:53.971Z,99788.66
2023-04-12T05:13:22.304Z,99793.50
2023-04-12T05:15:50.033Z,99798.00
2023-04-12T05:18:18.059Z,99791.31
2023-04-12T05:20:45.768Z,99783.56
2023-04-12T05:23:13.123Z,99777.47
2023-04-12T05:25:46.826Z,99779.41
2023-04-12T05:28:15.542Z,99786.06
2023-04-12T05:30:42.980Z,99784.34
2023-04-12T05:33:10.432Z,99785.84
2023-04-12T05:35:37.865Z,99782.75
2023-04-12T05:38:05.322Z,99787.59
2023-04-12T05:40:32.834Z,99791.25
2023-04-12T05:43:00.360Z,99775.59
2023-04-12T05:45:27.800Z,99778.75
2023-04-12T05:47:56.160Z,99787.50
2023-04-12T05:50:23.630Z,99792.06
2023-04-12T05:52:52.260Z,99785.53
2023-04-12T05:55:19.713Z,99787.13
2023-04-12T05:57:47.700Z,99788.66
2023-04-12T06:00:17.437Z,99792.00
2023-04-12T06:02:48.374Z,99789.84
2023-04-12T06:05:17.061Z,99800.00
2023-04-12T06:07:46.951Z,99796.00
2023-04-12T06:10:15.239Z,99801.69
2023-04-12T06:12:42.884Z,99786.84
2023-04-12T06:15:10.608Z,99776.03
2023-04-12T06:17:38.129Z,99782.63
2023-04-12T06:20:08.775Z,99786.91
2023-04-12T06:22:36.629Z,99792.38
2023-04-12T06:25:04.801Z,99788.75
2023-04-12T06:27:32.557Z,99790.97
2023-04-12T06:30:00.062Z,99790.44
2023-04-12T06:32:27.596Z,99773.41
2023-04-12T06:34:55.063Z,99771.44
2023-04-12T06:37:22.906Z,99776.06
2023-04-12T06:39:50.381Z,99765.41
2023-04-12T06:42:18.477Z,99775.91
2023-04-12T06:44:45.929Z,99776.44
2023-04-12T06:47:13.427Z,99773.94
2023-04-12T06:49:40.905Z,99771.16
2023-04-12T06:52:08.420Z,99769.03
2023-04-12T06:54:38.766Z,99769.16
2023-04-12T06:57:12.224Z,99765.31
2023-04-12T06:59:39.668Z,99780.00
2023-04-12T07:02:07.948Z,99774.75
2023-04-12T07:04:35.450Z,99769.69
2023-04-12T07:07:02.903Z,99769.81
2023-04-12T07:09:33.477Z,99775.78
2023-04-12T07:12:04.054Z,99771.56
2023-04-12T07:14:31.578Z,99762.31
2023-04-12T07:16:59.014Z,99774.25
2023-04-12T07:19:26.559Z,99777.16
2023-04-12T07:21:53.981Z,99784.59
2023-04-12T07:24:21.395Z,99779.31
2023-04-12T07:26:48.784Z,99780.75
2023-04-12T07:29:17.084Z,99775.13
2023-04-12T07:31:46.042Z,99774.06
2023-04-12T07:34:14.200Z,99767.09
2023-04-12T07:36:44.326Z,99767.25
2023-04-12T07:39:13.639Z,99758.63
2023-04-12T07:41:42.294Z,99765.41
2023-04-12T07:44:09.841Z,99754.41
2023-04-12T07:46:37.251Z,99754.00
2023-04-12T07:49:04.719Z,99756.03
2023-04-12T07:51:32.870Z,99757.72
2023-04-12T07:54:00.314Z,99750.38
2023-04-12T07:56:27.845Z,99756.25
2023-04-12T07:58:55.353Z,99763.03
2023-04-12T08:01:22.796Z,99760.28
2023-04-12T08:03:50.484Z,99751.84
2023-04-12T08:06:18.412Z,99741.53
2023-04-12T08:08:47.300Z,99737.78
2023-04-12T08:11:15.025Z,99733.22
2023-04-12T08:13:42.625Z,99731.53
2023-04-12T08:16:10.138Z,99731.94
2023-04-12T08:18:37.693Z,99712.34
2023-04-12T08:21:05.168Z,99716.41
2023-04-12T08:23:32.595Z,99720.31
2023-04-12T08:26:03.631Z,99724.13
2023-04-12T08:28:31.893Z,99726.81
2023-04-12T08:30:59.716Z,99725.72
2023-04-12T08:33:27.724Z,99731.75
2023-04-12T08:35:55.674Z,99725.72
2023-04-12T08:38:30.540Z,99737.19
2023-04-12T08:41:09.270Z,99736.81
2023-04-12T08:43:37.982Z,99740.34
2023-04-12T08:46:07.534Z,99727.75
2023-04-12T08:48:35.348Z,99732.19
2023-04-12T08:51:02.903Z,99734.72
2023-04-12T08:53:31.690Z,99728.59
2023-04-12T08:55:59.185Z,99736.84
2023-04-12T08:58:27.022Z,99722.81
2023-04-12T09:00:54.517Z,99717.88
2023-04-12T09:03:22.042Z,99704.47
2023-04-12T09:05:49.669Z,99712.66
2023-04-12T09:08:17.494Z,99707.81
2023-04-12T09:10:45.108Z,99707.16
2023-04-12T09:13:12.612Z,99699.41
2023-04-12T09:15:49.142Z,99695.16
2023-04-12T09:18:17.572Z,99699.19
2023-04-12T09:20:45.054Z,99693.94
2023-04-12T09:23:24.734Z,99692.47
2023-04-12T09:25:53.556Z,99696.03
2023-04-12T09:28:28.260Z,99698.91
2023-04-12T09:30:56.330Z,99708.25
2023-04-12T09:33:26.110Z,99701.66
2023-04-12T09:36:00.998Z,99699.09
2023-04-12T09:38:28.605Z,99707.16
2023-04-12T09:40:56.030Z,99699.53
2023-04-12T09:43:39.514Z,99690.34
2023-04-12T09:46:14.671Z,99687.25
2023-04-12T09:48:43.663Z,99700.72
2023-04-12T09:51:11.992Z,99697.72
2023-04-12T09:53:43.214Z,99686.84
2023-04-12T09:56:11.439Z,99690.31
2023-04-12T09:58:40.162Z,99682.56
2023-04-12T10:01:11.150Z,99677.78
2023-04-12T10:03:38.919Z,99682.25
2023-04-12T10:06:06.858Z,99688.25
2023-04-12T10:08:34.257Z,99697.75
2023-04-12T10:11:02.577Z,99683.31
2023-04-12T10:13:30.060Z,99675.91
2023-04-12T10:15:57.581Z,99670.41
2023-04-12T10:18:25.103Z,99680.50
2023-04-12T10:20:52.761Z,99681.38
2023-04-12T10:23:20.250Z,99681.75
2023-04-12T10:25:49.311Z,99685.84
2023-04-12T10:28:18.682Z,99683.31
2023-04-12T10:30:48.056Z,99685.13
2023-04-12T10:33:16.921Z,99684.69
2023-04-12T10:35:58.001Z,99680.19
2023-04-12T10:38:27.242Z,99677.78
2023-04-12T10:41:13.248Z,99674.88
2023-04-12T10:43:41.895Z,99683.47
2023-04-12T10:46:09.380Z,99681.84
2023-04-12T10:48:52.887Z,99687.38
2023-04-12T10:51:25.371Z,99672.59
2023-04-12T10:53:53.694Z,99685.41
2023-04-12T10:56:33.157Z,99692.38
2023-04-12T10:59:00.913Z,99681.31
2023-04-12T11:01:29.198Z,99690.41
2023-04-12T11:04:14.074Z,99691.34
2023-04-12T11:06:47.838Z,99695.75
2023-04-12T11:09:21.945Z,99689.75
2023-04-12T11:11:49.922Z,99684.41
2023-04-12T11:14:17.722Z,99693.19
2023-04-12T11:17:03.808Z,99686.66
2023-04-12T11:19:32.172Z,99693.38
2023-04-12T11:22:02.314Z,99693.69
2023-04-12T11:24:29.944Z,99699.72
2023-04-12T11:27:01.516Z,99689.16
2023-04-12T11:29:28.969Z,99684.00
2023-04-12T11:31:56.617Z,99696.97
2023-04-12T11:34:24.110Z,99690.38
2023-04-12T11:36:55.360Z,99697.25
2023-04-12T11:39:22.886Z,99697.72
2023-04-12T11:41:50.575Z,99708.06
2023-04-12T11:44:19.029Z,99716.56
2023-04-12T11:46:46.869Z,99712.34
2023-04-12T11:49:17.660Z,99689.34
2023-04-12T11:51:48.234Z,99712.88
2023-04-12T11:54:16.992Z,99710.16
2023-04-12T11:56:44.538Z,99699.13
2023-04-12T11:59:12.760Z,99704.44
2023-04-12T12:01:40.315Z,99708.28
2023-04-12T12:04:07.885Z,99710.34
2023-04-12T12:06:35.716Z,99709.91
2023-04-12T12:09:03.352Z,99709.00
2023-04-12T12:11:32.517Z,99714.34
2023-04-12T12:14:00.499Z,99705.81
2023-04-12T12:16:29.114Z,99720.78
2023-04-12T12:18:57.452Z,99721.66
2023-04-12T12:21:24.950Z,99719.47
2023-04-12T12:23:52.707Z,99727.84
2023-04-12T12:26:22.386Z,99720.41
2023-04-12T12:28:51.038Z,99717.47
2023-04-12T12:31:22.341Z,99723.84
2023-04-12T12:33:52.497Z,99740.97
2023-04-12T12:36:20.965Z,99722.56
2023-04-12T12:38:51.205Z,99726.97
2023-04-12T12:41:18.766Z,99724.13
2023-04-12T12:43:47.037Z,99726.13
2023-04-12T12:46:14.979Z,99720.59
2023-04-12T12:48:43.060Z,99735.47
2023-04-12T12:51:11.868Z,99728.31
2023-04-12T12:53:40.738Z,99734.59
2023-04-12T12:56:10.088Z,99741.66
2023-04-12T12:58:39.687Z,99760.47
2023-04-12T13:01:08.961Z,99757.06
2023-04-12T13:03:36.865Z,99754.78
2023-04-12T13:06:04.430Z,99743.13
2023-04-12T13:08:35.251Z,99742.34
2023-04-12T13:11:02.863Z,99755.13
2023-04-12T13:13:30.409Z,99749.16
2023-04-12T13:15:57.873Z,99750.09
2023-04-12T13:18:25.362Z,99739.53
2023-04-12T13:20:52.825Z,99735.22
2023-04-12T13:23:20.500Z,99726.03
2023-04-12T13:25:47.941Z,99726.16
2023-04-12T13:28:16.851Z,99723.19
2023-04-12T13:30:44.532Z,99738.47
2023-04-12T13:33:14.296Z,99740.03
2023-04-12T13:35:45.255Z,99731.38
2023-04-12T13:38:12.759Z,99728.13
2023-04-12T13:40:40.174Z,99716.72
2023-04-12T13:43:08.708Z,99722.53
2023-04-12T13:45:36.759Z,99723.50
2023-04-12T13:48:04.341Z,99717.91
2023-04-12T13:50:31.836Z,99715.44
2023-04-12T13:52:59.258Z,99725.19
2023-04-12T13:55:26.674Z,99715.63
2023-04-12T13:57:54.098Z,99725.88
2023-04-12T14:00:21.769Z,99735.94
2023-04-12T14:02:49.324Z,99725.28
2023-04-12T14:05:16.784Z,99729.81
2023-04-12T14:07:44.246Z,99739.50
2023-04-12T14:10:11.764Z,99744.97
2023-04-12T14:12:39.161Z,99760.88
2023-04-12T14:15:07.259Z,99741.47
2023-04-12T14:17:34.730Z,99741.84
2023-04-12T14:20:02.388Z,99744.75
2023-04-12T14:22:30.198Z,99751.00
2023-04-12T14:24:57.621Z,99725.09
2023-04-12T14:27:24.957Z,99712.53
2023-04-12T14:29:52.696Z,99713.13
2023-04-12T14:32:20.136Z,99721.50
2023-04-12T14:34:48.385Z,99718.81
2023-04-12T14:37:16.242Z,99709.31
2023-04-12T14:39:44.419Z,99708.75
2023-04-12T14:42:11.831Z,99705.78
2023-04-12T14:44:39.270Z,99692.44
2023-04-12T14:47:06.729Z,99699.03
2023-04-12T14:49:34.158Z,99686.72
2023-04-12T14:52:01.992Z,99700.13
2023-04-12T14:54:29.429Z,99693.84
2023-04-12T14:56:56.899Z,99706.81
2023-04-12T14:59:24.900Z,99703.38
2023-04-12T15:01:53.106Z,99703.06
2023-04-12T15:04:20.725Z,99724.28
2023-04-12T15:06:48.293Z,99723.69
2023-04-12T15:09:17.693Z,99724.16
2023-04-12T15:11:46.707Z,99738.69
2023-04-12T15:14:18.018Z,99717.75
2023-04-12T15:16:46.346Z,99733.69
2023-04-12T15:19:19.845Z,99739.38
2023-04-12T15:21:54.088Z,99741.72
2023-04-12T15:24:24.722Z,99747.72
2023-04-12T15:26:53.231Z,99739.81
2023-04-12T15:29:21.298Z,99739.72
2023-04-12T15:31:49.000Z,99739.41
2023-04-12T15:34:16.595Z,99727.34
2023-04-12T15:36:44.322Z,99734.97
2023-04-12T15:39:14.680Z,99735.06
2023-04-12T15:41:42.932Z,99744.84
2023-04-12T15:44:13.062Z,99735.88
2023-04-12T15:46:41.462Z,99736.13
2023-04-12T15:49:09.108Z,99743.16
2023-04-12T15:51:36.724Z,99739.28
2023-04-12T15:54:06.155Z,99733.47
2023-04-12T15:56:34.522Z,99749.38
2023-04-12T15:59:02.085Z,99724.06
2023-04-12T16:01:29.566Z,99732.94
2023-04-12T16:03:57.356Z,99731.00
2023-04-12T16:06:25.432Z,99727.16
2023-04-12T16:08:54.623Z,99727.84
2023-04-12T16:11:23.204Z,99732.97
2023-04-12T16:13:51.420Z,99730.91
2023-04-12T16:16:19.293Z,99731.81
2023-04-12T16:18:46.777Z,99733.16
2023-04-12T16:21:16.603Z,99722.00
2023-04-12T16:23:44.925Z,99695.44
2023-04-12T16:26:13.124Z,99717.06
2023-04-12T16:28:42.859Z,99700.97
2023-04-12T16:31:11.040Z,99716.44
2023-04-12T16:33:38.555Z,99705.78
2023-04-12T16:36:06.081Z,99701.44
2023-04-12T16:38:33.473Z,99701.22
2023-04-12T16:41:01.122Z,99698.66
2023-04-12T16:43:28.591Z,99702.34
2023-04-12T16:45:56.786Z,99702.97
2023-04-12T16:48:24.222Z,99709.47
2023-04-12T16:50:51.597Z,99701.31
2023-04-12T16:53:19.053Z,99711.88
2023-04-12T16:55:47.623Z,99720.00
2023-04-12T16:58:15.291Z,99720.09
2023-04-12T17:00:43.663Z,99726.09
2023-04-12T17:03:12.768Z,99709.22
2023-04-12T17:05:41.087Z,99698.72
2023-04-12T17:08:09.618Z,99698.34
2023-04-12T17:10:38.321Z,99692.69
2023-04-12T17:13:05.922Z,99696.91
2023-04-12T17:15:33.706Z,99689.09
2023-04-12T17:18:05.256Z,99685.56
2023-04-12T17:20:32.891Z,99683.59
2023-04-12T17:23:01.424Z,99694.00
2023-04-12T17:25:31.231Z,99699.84
2023-04-12T17:28:01.673Z,99692.19
2023-04-12T17:30:29.259Z,99691.97
2023-04-12T17:32:58.151Z,99680.78
2023-04-12T17:35:25.639Z,99683.19
2023-04-12T17:37:52.990Z,99678.38
2023-04-12T17:40:20.379Z,99682.25
2023-04-12T17:42:48.094Z,99674.28
2023-04-12T17:45:16.008Z,99680.94
2023-04-12T17:47:43.750Z,99672.72
2023-04-12T17:50:12.058Z,99673.47
2023-04-12T17:52:39.807Z,99658.44
2023-04-12T17:55:09.928Z,99660.50
2023-04-12T17:57:37.445Z,99664.53
2023-04-12T18:00:07.540Z,99667.69
2023-04-12T18:02:35.167Z,99663.34
2023-04-12T18:05:02.958Z,99674.63
2023-04-12T18:07:30.518Z,99674.22
2023-04-12T18:09:57.878Z,99666.47
2023-04-12T18:12:25.308Z,99669.75
2023-04-12T18:14:52.803Z,99673.53
2023-04-12T18:17:20.222Z,99673.13
2023-04-12T18:19:48.875Z,99671.00
2023-04-12T18:22:16.300Z,99670.34
2023-04-12T18:24:43.865Z,99669.47
2023-04-12T18:27:11.291Z,99673.19
2023-04-12T18:29:38.715Z,99670.72
2023-04-12T18:32:06.169Z,99660.03
2023-04-12T18:34:33.841Z,99658.41
2023-04-12T18:37:03.998Z,99665.53
2023-04-12T18:39:31.420Z,99666.78
2023-04-12T18:41:58.836Z,99674.84
2023-04-12T18:44:26.216Z,99670.53
2023-04-12T18:46:53.701Z,99666.31
2023-04-12T18:49:22.011Z,99674.84
2023-04-12T18:51:49.530Z,99679.00
2023-04-12T18:54:17.510Z,99672.41
2023-04-12T18:56:44.876Z,99676.78
2023-04-12T18:59:17.325Z,99674.94
2023-04-12T19:01:45.399Z,99661.34
2023-04-12T19:04:16.370Z,99661.63
2023-04-12T19:06:44.475Z,99665.25
2023-04-12T19:09:12.032Z,99658.50
2023-04-12T19:11:39.634Z,99673.38
2023-04-12T19:14:07.597Z,99659.63
2023-04-12T19:16:36.168Z,99658.84
2023-04-12T19:19:03.670Z,99668.53
2023-04-12T19:21:32.075Z,99668.66
2023-04-12T19:24:00.189Z,99669.28
2023-04-12T19:26:28.821Z,99664.91
2023-04-12T19:28:58.742Z,99668.94
2023-04-12T19:31:26.549Z,99666.44
2023-04-12T19:33:55.554Z,99663.97
2023-04-12T19:36:24.328Z,99652.34
2023-04-12T19:38:51.700Z,99643.47
2023-04-12T19:41:20.384Z,99635.00
2023-04-12T19:43:48.516Z,99636.00
2023-04-12T19:46:16.407Z,99628.13
2023-04-12T19:48:45.414Z,99628.09
2023-04-12T19:51:13.881Z,99616.94
2023-04-12T19:53:41.950Z,99612.50
2023-04-12T19:56:09.735Z,99604.34
2023-04-12T19:58:37.171Z,99604.13
2023-04-12T20:01:05.479Z,99600.75
2023-04-12T20:03:33.033Z,99592.25
2023-04-12T20:06:04.058Z,99593.84
2023-04-12T20:08:32.054Z,99595.66
2023-04-12T20:10:59.574Z,99591.31
2023-04-12T20:13:28.574Z,99584.44
2023-04-12T20:15:56.251Z,99585.50
2023-04-12T20:18:23.808Z,99581.97
2023-04-12T20:20:53.237Z,99580.47
2023-04-12T20:23:20.670Z,99575.16
2023-04-12T20:25:49.696Z,99573.69
2023-04-12T20:28:17.147Z,99572.69
2023-04-12T20:30:45.313Z,99572.00
2023-04-12T20:33:13.000Z,99566.59
2023-04-12T20:35:40.973Z,99557.13
2023-04-12T20:38:08.424Z,99555.38
2023-04-12T20:40:35.935Z,99550.16
2023-04-12T20:43:03.474Z,99535.75
2023-04-12T20:45:31.094Z,99526.22
2023-04-12T20:47:59.297Z,99528.84
2023-04-12T20:50:27.058Z,99525.13
2023-04-12T20:52:56.207Z,99523.63
2023-04-12T20:55:33.942Z,99507.03
2023-04-12T20:58:03.151Z,99499.06
2023-04-12T21:00:31.193Z,99478.22
2023-04-12T21:03:02.978Z,99485.31
2023-04-12T21:05:33.632Z,99475.50
2023-04-12T21:08:02.056Z,99475.88
2023-04-12T21:10:29.570Z,99477.72
2023-04-12T21:12:58.281Z,99468.88
2023-04-12T21:15:26.030Z,99461.88
2023-04-12T21:17:54.126Z,99462.91
2023-04-12T21:20:22.323Z,99444.38
2023-04-12T21:22:51.689Z,99447.19
2023-04-12T21:25:19.787Z,99435.97
2023-04-12T21:27:47.816Z,99444.28
2023-04-12T21:30:15.703Z,99429.53
2023-04-12T21:32:43.968Z,99423.44
2023-04-12T21:35:11.984Z,99421.69
2023-04-12T21:37:39.947Z,99411.28
2023-04-12T21:40:12.617Z,99407.72
2023-04-12T21:42:40.950Z,99406.25
2023-04-12T21:45:09.566Z,99407.94
2023-04-12T21:47:37.303Z,99396.25
2023-04-12T21:50:04.864Z,99396.16
2023-04-12T21:52:32.238Z,99391.91
2023-04-12T21:55:00.016Z,99384.84
2023-04-12T21:57:31.157Z,99388.03
2023-04-12T21:59:58.863Z,99382.81
2023-04-12T22:02:27.415Z,99392.53
2023-04-12T22:04:55.363Z,99385.91
2023-04-12T22:07:22.771Z,99390.59
2023-04-12T22:09:51.113Z,99397.03
2023-04-12T22:12:18.518Z,99378.94
2023-04-12T22:14:47.474Z,99377.19
2023-04-12T22:17:16.571Z,99391.78
2023-04-12T22:19:44.812Z,99383.28
2023-04-12T22:22:14.221Z,99377.75
2023-04-12T22:24:41.652Z,99399.44
2023-04-12T22:27:09.226Z,99379.59
2023-04-12T22:29:37.703Z,99391.78
2023-04-12T22:32:05.416Z,99381.97
2023-04-12T22:34:33.798Z,99385.56
2023-04-12T22:37:03.352Z,99398.22
2023-04-12T22:39:31.629Z,99377.94
2023-04-12T22:41:59.583Z,99395.50
2023-04-12T22:44:29.029Z,99375.41
2023-04-12T22:46:56.812Z,99348.41
2023-04-12T22:49:27.970Z,99367.91
2023-04-12T22:51:55.818Z,99367.91
2023-04-12T22:54:23.863Z,99373.38
2023-04-12T22:56:51.617Z,99364.88
2023-04-12T22:59:20.003Z,99355.81
2023-04-12T23:01:48.421Z,99352.38
2023-04-12T23:04:16.958Z,99345.44
2023-04-12T23:06:44.812Z,99352.13
2023-04-12T23:09:13.246Z,99348.53
2023-04-12T23:11:41.695Z,99341.50
2023-04-12T23:14:09.730Z,99336.19
2023-04-12T23:16:42.227Z,99317.34
2023-04-12T23:19:09.644Z,99325.72
2023-04-12T23:21:37.195Z,99315.69
2023-04-12T23:24:05.285Z,99318.69
2023-04-12T23:26:34.342Z,99323.03
2023-04-12T23:29:03.512Z,99303.34
2023-04-12T23:31:32.072Z,99311.06
2023-04-12T23:34:02.519Z,99308.84
2023-04-12T23:36:30.700Z,99306.78
2023-04-12T23:39:00.512Z,99309.66
2023-04-12T23:41:31.714Z,99306.78
2023-04-12T23:43:59.988Z,99298.25
2023-04-12T23:46:27.881Z,99313.41
2023-04-12T23:48:55.347Z,99309.03
2023-04-12T23:51:23.025Z,99303.19
2023-04-12T23:53:50.529Z,99311.09
2023-04-12T23:56:17.988Z,99303.66
2023-04-12T23:58:45.574Z,99310.06
